sensor_id;sensor_type;location;lat;lon;timestamp;P1;durP1;ratioP1;P2;durP2;ratioP2
82230;SDS011;71832;45.138;9.816;2023-08-01T00:01:03;15.25;;;10.02;;
82230;SDS011;71832;45.138;9.816;2023-08-01T00:03:32;18.40;;;11.85;;
82230;SDS011;71832;45.138;9.816;2023-08-01T00:06:00;22.77;;;13.48;;
82230;SDS011;71832;45.138;9.816;2023-08-01T00:08:28;17.35;;;12.02;;
82230;SDS011;71832;45.138;9.816;2023-08-01T00:10:56;19.25;;;12.77;;
82230;SDS011;71832;45.138;9.816;2023-08-01T00:13:24;21.98;;;13.38;;
82230;SDS011;71832;45.138;9.816;2023-08-01T00:15:53;18.38;;;12.75;;
82230;SDS011;71832;45.138;9.816;2023-08-01T00:18:21;16.90;;;11.38;;
82230;SDS011;71832;45.138;9.816;2023-08-01T00:20:52;19.15;;;13.10;;
82230;SDS011;71832;45.138;9.816;2023-08-01T00:23:20;19.35;;;12.57;;
82230;SDS011;71832;45.138;9.816;2023-08-01T00:25:49;19.55;;;12.93;;
82230;SDS011;71832;45.138;9.816;2023-08-01T00:28:18;19.73;;;12.50;;
82230;SDS011;71832;45.138;9.816;2023-08-01T00:30:46;20.08;;;12.93;;
82230;SDS011;71832;45.138;9.816;2023-08-01T00:33:15;17.70;;;11.68;;
82230;SDS011;71832;45.138;9.816;2023-08-01T00:35:43;18.67;;;12.32;;
82230;SDS011;71832;45.138;9.816;2023-08-01T00:38:10;16.95;;;11.88;;
82230;SDS011;71832;45.138;9.816;2023-08-01T00:40:38;20.58;;;13.35;;
82230;SDS011;71832;45.138;9.816;2023-08-01T00:43:06;20.25;;;13.02;;
82230;SDS011;71832;45.138;9.816;2023-08-01T00:45:33;18.42;;;11.93;;
82230;SDS011;71832;45.138;9.816;2023-08-01T00:48:01;18.33;;;12.93;;
82230;SDS011;71832;45.138;9.816;2023-08-01T00:50:29;18.05;;;12.40;;
82230;SDS011;71832;45.138;9.816;2023-08-01T00:52:56;18.05;;;11.48;;
82230;SDS011;71832;45.138;9.816;2023-08-01T00:55:25;17.00;;;10.85;;
82230;SDS011;71832;45.138;9.816;2023-08-01T00:57:55;17.95;;;11.40;;
82230;SDS011;71832;45.138;9.816;2023-08-01T01:00:24;15.68;;;10.20;;
82230;SDS011;71832;45.138;9.816;2023-08-01T01:02:52;15.82;;;10.18;;
82230;SDS011;71832;45.138;9.816;2023-08-01T01:05:20;19.95;;;12.25;;
82230;SDS011;71832;45.138;9.816;2023-08-01T01:07:51;17.50;;;10.95;;
82230;SDS011;71832;45.138;9.816;2023-08-01T01:10:21;17.48;;;11.40;;
82230;SDS011;71832;45.138;9.816;2023-08-01T01:12:49;17.52;;;11.25;;
82230;SDS011;71832;45.138;9.816;2023-08-01T01:15:17;18.52;;;11.13;;
82230;SDS011;71832;45.138;9.816;2023-08-01T01:17:46;20.38;;;12.63;;
82230;SDS011;71832;45.138;9.816;2023-08-01T01:20:18;17.67;;;11.57;;
82230;SDS011;71832;45.138;9.816;2023-08-01T01:22:48;17.20;;;11.32;;
82230;SDS011;71832;45.138;9.816;2023-08-01T01:25:20;15.20;;;10.02;;
82230;SDS011;71832;45.138;9.816;2023-08-01T01:27:49;17.13;;;11.13;;
82230;SDS011;71832;45.138;9.816;2023-08-01T01:30:18;17.88;;;12.07;;
82230;SDS011;71832;45.138;9.816;2023-08-01T01:32:46;20.90;;;12.10;;
82230;SDS011;71832;45.138;9.816;2023-08-01T01:35:15;25.17;;;13.23;;
82230;SDS011;71832;45.138;9.816;2023-08-01T01:37:44;16.67;;;11.10;;
82230;SDS011;71832;45.138;9.816;2023-08-01T01:40:12;18.98;;;12.07;;
82230;SDS011;71832;45.138;9.816;2023-08-01T01:42:40;16.77;;;11.27;;
82230;SDS011;71832;45.138;9.816;2023-08-01T01:45:07;19.48;;;12.98;;
82230;SDS011;71832;45.138;9.816;2023-08-01T01:47:35;16.17;;;11.73;;
82230;SDS011;71832;45.138;9.816;2023-08-01T01:50:04;24.65;;;12.90;;
82230;SDS011;71832;45.138;9.816;2023-08-01T01:52:33;22.25;;;12.63;;
82230;SDS011;71832;45.138;9.816;2023-08-01T01:55:01;19.80;;;13.27;;
82230;SDS011;71832;45.138;9.816;2023-08-01T01:57:30;23.92;;;13.32;;
82230;SDS011;71832;45.138;9.816;2023-08-01T01:59:59;21.38;;;13.32;;
82230;SDS011;71832;45.138;9.816;2023-08-01T02:02:28;21.35;;;13.98;;
82230;SDS011;71832;45.138;9.816;2023-08-01T02:04:56;22.05;;;13.52;;
82230;SDS011;71832;45.138;9.816;2023-08-01T02:07:25;24.42;;;14.80;;
82230;SDS011;71832;45.138;9.816;2023-08-01T02:09:54;21.35;;;14.27;;
82230;SDS011;71832;45.138;9.816;2023-08-01T02:12:22;26.45;;;14.02;;
82230;SDS011;71832;45.138;9.816;2023-08-01T02:14:50;21.60;;;13.88;;
82230;SDS011;71832;45.138;9.816;2023-08-01T02:17:18;23.52;;;15.20;;
82230;SDS011;71832;45.138;9.816;2023-08-01T02:19:46;25.95;;;16.10;;
82230;SDS011;71832;45.138;9.816;2023-08-01T02:22:13;28.15;;;16.15;;
82230;SDS011;71832;45.138;9.816;2023-08-01T02:24:41;28.35;;;16.42;;
82230;SDS011;71832;45.138;9.816;2023-08-01T02:27:08;25.75;;;15.20;;
82230;SDS011;71832;45.138;9.816;2023-08-01T02:29:35;25.38;;;15.30;;
82230;SDS011;71832;45.138;9.816;2023-08-01T02:32:03;23.98;;;15.00;;
82230;SDS011;71832;45.138;9.816;2023-08-01T02:34:31;24.70;;;16.98;;
82230;SDS011;71832;45.138;9.816;2023-08-01T02:36:59;28.40;;;16.92;;
82230;SDS011;71832;45.138;9.816;2023-08-01T02:39:28;24.20;;;16.08;;
82230;SDS011;71832;45.138;9.816;2023-08-01T02:41:56;27.83;;;17.52;;
82230;SDS011;71832;45.138;9.816;2023-08-01T02:44:24;24.20;;;16.10;;
82230;SDS011;71832;45.138;9.816;2023-08-01T02:46:52;26.00;;;16.83;;
82230;SDS011;71832;45.138;9.816;2023-08-01T02:49:20;24.17;;;16.20;;
82230;SDS011;71832;45.138;9.816;2023-08-01T02:51:48;30.00;;;18.45;;
82230;SDS011;71832;45.138;9.816;2023-08-01T02:54:17;29.98;;;18.20;;
82230;SDS011;71832;45.138;9.816;2023-08-01T02:56:46;30.00;;;17.65;;
82230;SDS011;71832;45.138;9.816;2023-08-01T02:59:15;27.30;;;17.52;;
82230;SDS011;71832;45.138;9.816;2023-08-01T03:01:44;29.98;;;18.83;;
82230;SDS011;71832;45.138;9.816;2023-08-01T03:04:12;33.83;;;19.20;;
82230;SDS011;71832;45.138;9.816;2023-08-01T03:06:40;28.85;;;17.90;;
82230;SDS011;71832;45.138;9.816;2023-08-01T03:09:08;32.95;;;18.63;;
82230;SDS011;71832;45.138;9.816;2023-08-01T03:11:37;32.10;;;19.15;;
82230;SDS011;71832;45.138;9.816;2023-08-01T03:14:05;27.92;;;18.35;;
82230;SDS011;71832;45.138;9.816;2023-08-01T03:16:34;31.83;;;19.10;;
82230;SDS011;71832;45.138;9.816;2023-08-01T03:19:03;29.52;;;17.92;;
82230;SDS011;71832;45.138;9.816;2023-08-01T03:21:32;31.42;;;18.88;;
82230;SDS011;71832;45.138;9.816;2023-08-01T03:24:02;33.22;;;19.77;;
82230;SDS011;71832;45.138;9.816;2023-08-01T03:26:35;31.23;;;18.33;;
82230;SDS011;71832;45.138;9.816;2023-08-01T03:29:04;27.45;;;17.20;;
82230;SDS011;71832;45.138;9.816;2023-08-01T03:31:31;32.05;;;19.10;;
82230;SDS011;71832;45.138;9.816;2023-08-01T03:34:00;28.55;;;18.27;;
82230;SDS011;71832;45.138;9.816;2023-08-01T03:36:28;31.90;;;19.30;;
82230;SDS011;71832;45.138;9.816;2023-08-01T03:38:57;29.55;;;18.67;;
82230;SDS011;71832;45.138;9.816;2023-08-01T03:41:24;34.67;;;20.40;;
82230;SDS011;71832;45.138;9.816;2023-08-01T03:43:53;29.90;;;19.23;;
82230;SDS011;71832;45.138;9.816;2023-08-01T03:46:22;33.63;;;20.00;;
82230;SDS011;71832;45.138;9.816;2023-08-01T03:48:49;35.10;;;19.02;;
82230;SDS011;71832;45.138;9.816;2023-08-01T03:51:16;31.35;;;19.30;;
82230;SDS011;71832;45.138;9.816;2023-08-01T03:53:45;34.72;;;20.48;;
82230;SDS011;71832;45.138;9.816;2023-08-01T03:56:13;32.22;;;20.05;;
82230;SDS011;71832;45.138;9.816;2023-08-01T03:58:41;32.25;;;18.30;;
82230;SDS011;71832;45.138;9.816;2023-08-01T04:01:09;29.85;;;18.48;;
82230;SDS011;71832;45.138;9.816;2023-08-01T04:03:37;29.85;;;17.52;;
82230;SDS011;71832;45.138;9.816;2023-08-01T04:06:04;30.33;;;16.88;;
82230;SDS011;71832;45.138;9.816;2023-08-01T04:08:32;28.27;;;17.08;;
82230;SDS011;71832;45.138;9.816;2023-08-01T04:10:59;31.70;;;18.20;;
82230;SDS011;71832;45.138;9.816;2023-08-01T04:13:27;27.85;;;16.77;;
82230;SDS011;71832;45.138;9.816;2023-08-01T04:15:54;33.33;;;17.85;;
82230;SDS011;71832;45.138;9.816;2023-08-01T04:18:22;27.55;;;15.77;;
82230;SDS011;71832;45.138;9.816;2023-08-01T04:20:49;36.85;;;17.55;;
82230;SDS011;71832;45.138;9.816;2023-08-01T04:23:16;29.75;;;15.75;;
82230;SDS011;71832;45.138;9.816;2023-08-01T04:25:44;31.67;;;17.58;;
82230;SDS011;71832;45.138;9.816;2023-08-01T04:28:12;33.85;;;18.48;;
82230;SDS011;71832;45.138;9.816;2023-08-01T04:30:40;32.13;;;20.00;;
82230;SDS011;71832;45.138;9.816;2023-08-01T04:33:07;36.08;;;18.83;;
82230;SDS011;71832;45.138;9.816;2023-08-01T04:35:35;34.80;;;18.88;;
82230;SDS011;71832;45.138;9.816;2023-08-01T04:38:03;34.28;;;19.20;;
82230;SDS011;71832;45.138;9.816;2023-08-01T04:40:31;37.08;;;21.13;;
82230;SDS011;71832;45.138;9.816;2023-08-01T04:43:00;36.20;;;21.02;;
82230;SDS011;71832;45.138;9.816;2023-08-01T04:45:29;36.60;;;20.30;;
82230;SDS011;71832;45.138;9.816;2023-08-01T04:47:56;43.53;;;23.70;;
82230;SDS011;71832;45.138;9.816;2023-08-01T04:50:24;43.00;;;25.70;;
82230;SDS011;71832;45.138;9.816;2023-08-01T04:52:51;42.25;;;25.45;;
82230;SDS011;71832;45.138;9.816;2023-08-01T04:55:19;45.22;;;24.95;;
82230;SDS011;71832;45.138;9.816;2023-08-01T04:57:46;45.45;;;26.55;;
82230;SDS011;71832;45.138;9.816;2023-08-01T05:00:14;47.28;;;27.08;;
82230;SDS011;71832;45.138;9.816;2023-08-01T05:02:42;48.13;;;27.38;;
82230;SDS011;71832;45.138;9.816;2023-08-01T05:05:10;46.22;;;27.30;;
82230;SDS011;71832;45.138;9.816;2023-08-01T05:07:38;46.58;;;26.67;;
82230;SDS011;71832;45.138;9.816;2023-08-01T05:10:06;44.30;;;25.27;;
82230;SDS011;71832;45.138;9.816;2023-08-01T05:12:34;49.80;;;28.30;;
82230;SDS011;71832;45.138;9.816;2023-08-01T05:15:03;49.03;;;27.83;;
82230;SDS011;71832;45.138;9.816;2023-08-01T05:17:32;53.88;;;28.80;;
82230;SDS011;71832;45.138;9.816;2023-08-01T05:20:01;49.05;;;24.20;;
82230;SDS011;71832;45.138;9.816;2023-08-01T05:22:30;45.70;;;26.02;;
82230;SDS011;71832;45.138;9.816;2023-08-01T05:24:57;43.83;;;26.08;;
82230;SDS011;71832;45.138;9.816;2023-08-01T05:27:25;49.25;;;26.13;;
82230;SDS011;71832;45.138;9.816;2023-08-01T05:29:52;47.45;;;26.58;;
82230;SDS011;71832;45.138;9.816;2023-08-01T05:32:21;44.30;;;26.17;;
82230;SDS011;71832;45.138;9.816;2023-08-01T05:34:49;45.50;;;24.85;;
82230;SDS011;71832;45.138;9.816;2023-08-01T05:37:17;47.95;;;26.60;;
82230;SDS011;71832;45.138;9.816;2023-08-01T05:39:44;47.15;;;25.42;;
82230;SDS011;71832;45.138;9.816;2023-08-01T05:42:12;45.67;;;24.40;;
82230;SDS011;71832;45.138;9.816;2023-08-01T05:44:39;46.03;;;25.80;;
82230;SDS011;71832;45.138;9.816;2023-08-01T05:47:07;48.22;;;25.35;;
82230;SDS011;71832;45.138;9.816;2023-08-01T05:49:35;43.50;;;24.95;;
82230;SDS011;71832;45.138;9.816;2023-08-01T05:52:03;48.65;;;27.60;;
82230;SDS011;71832;45.138;9.816;2023-08-01T05:54:31;45.88;;;25.50;;
82230;SDS011;71832;45.138;9.816;2023-08-01T05:56:59;47.60;;;26.38;;
82230;SDS011;71832;45.138;9.816;2023-08-01T05:59:28;58.35;;;33.15;;
82230;SDS011;71832;45.138;9.816;2023-08-01T06:01:56;45.70;;;26.00;;
82230;SDS011;71832;45.138;9.816;2023-08-01T06:04:25;48.17;;;27.05;;
82230;SDS011;71832;45.138;9.816;2023-08-01T06:06:54;48.88;;;26.23;;
82230;SDS011;71832;45.138;9.816;2023-08-01T06:09:23;47.15;;;24.67;;
82230;SDS011;71832;45.138;9.816;2023-08-01T06:11:51;49.15;;;27.02;;
82230;SDS011;71832;45.138;9.816;2023-08-01T06:14:20;60.42;;;30.33;;
82230;SDS011;71832;45.138;9.816;2023-08-01T06:16:49;43.55;;;23.42;;
82230;SDS011;71832;45.138;9.816;2023-08-01T06:19:17;46.72;;;23.48;;
82230;SDS011;71832;45.138;9.816;2023-08-01T06:21:44;34.08;;;20.75;;
82230;SDS011;71832;45.138;9.816;2023-08-01T06:24:12;40.35;;;20.50;;
82230;SDS011;71832;45.138;9.816;2023-08-01T06:26:39;41.25;;;22.08;;
82230;SDS011;71832;45.138;9.816;2023-08-01T06:29:08;45.78;;;21.42;;
82230;SDS011;71832;45.138;9.816;2023-08-01T06:31:37;41.75;;;23.25;;
82230;SDS011;71832;45.138;9.816;2023-08-01T06:34:06;40.10;;;22.30;;
82230;SDS011;71832;45.138;9.816;2023-08-01T06:36:34;47.03;;;24.92;;
82230;SDS011;71832;45.138;9.816;2023-08-01T06:39:03;44.03;;;22.92;;
82230;SDS011;71832;45.138;9.816;2023-08-01T06:41:31;44.13;;;21.70;;
82230;SDS011;71832;45.138;9.816;2023-08-01T06:44:00;46.83;;;23.67;;
82230;SDS011;71832;45.138;9.816;2023-08-01T06:46:27;41.38;;;22.90;;
82230;SDS011;71832;45.138;9.816;2023-08-01T06:48:56;40.38;;;21.27;;
82230;SDS011;71832;45.138;9.816;2023-08-01T06:51:24;44.60;;;23.35;;
82230;SDS011;71832;45.138;9.816;2023-08-01T06:53:51;45.78;;;24.25;;
82230;SDS011;71832;45.138;9.816;2023-08-01T06:56:19;42.08;;;21.63;;
82230;SDS011;71832;45.138;9.816;2023-08-01T06:58:47;32.00;;;17.45;;
82230;SDS011;71832;45.138;9.816;2023-08-01T07:01:16;32.22;;;17.33;;
82230;SDS011;71832;45.138;9.816;2023-08-01T07:03:45;32.45;;;16.25;;
82230;SDS011;71832;45.138;9.816;2023-08-01T07:06:13;34.45;;;17.95;;
82230;SDS011;71832;45.138;9.816;2023-08-01T07:08:42;36.10;;;18.38;;
82230;SDS011;71832;45.138;9.816;2023-08-01T07:11:11;34.53;;;16.52;;
82230;SDS011;71832;45.138;9.816;2023-08-01T07:13:39;38.78;;;19.25;;
82230;SDS011;71832;45.138;9.816;2023-08-01T07:16:08;33.85;;;17.05;;
82230;SDS011;71832;45.138;9.816;2023-08-01T07:18:36;32.58;;;15.68;;
82230;SDS011;71832;45.138;9.816;2023-08-01T07:21:05;31.98;;;15.57;;
82230;SDS011;71832;45.138;9.816;2023-08-01T07:23:34;29.73;;;15.90;;
82230;SDS011;71832;45.138;9.816;2023-08-01T07:26:03;31.75;;;15.75;;
82230;SDS011;71832;45.138;9.816;2023-08-01T07:28:31;25.83;;;14.15;;
82230;SDS011;71832;45.138;9.816;2023-08-01T07:31:04;31.17;;;15.43;;
82230;SDS011;71832;45.138;9.816;2023-08-01T07:33:34;30.30;;;15.50;;
82230;SDS011;71832;45.138;9.816;2023-08-01T07:36:03;30.10;;;14.27;;
82230;SDS011;71832;45.138;9.816;2023-08-01T07:38:32;32.50;;;13.80;;
82230;SDS011;71832;45.138;9.816;2023-08-01T07:41:02;20.88;;;10.70;;
82230;SDS011;71832;45.138;9.816;2023-08-01T07:43:31;22.73;;;10.35;;
82230;SDS011;71832;45.138;9.816;2023-08-01T07:46:00;22.77;;;11.27;;
82230;SDS011;71832;45.138;9.816;2023-08-01T07:48:29;21.13;;;10.77;;
82230;SDS011;71832;45.138;9.816;2023-08-01T07:50:57;21.65;;;11.43;;
82230;SDS011;71832;45.138;9.816;2023-08-01T07:53:25;21.42;;;11.45;;
82230;SDS011;71832;45.138;9.816;2023-08-01T07:55:54;22.10;;;10.20;;
82230;SDS011;71832;45.138;9.816;2023-08-01T07:58:24;20.20;;;10.45;;
82230;SDS011;71832;45.138;9.816;2023-08-01T08:00:52;26.58;;;10.73;;
82230;SDS011;71832;45.138;9.816;2023-08-01T08:03:20;24.83;;;12.52;;
82230;SDS011;71832;45.138;9.816;2023-08-01T08:05:49;31.90;;;13.80;;
82230;SDS011;71832;45.138;9.816;2023-08-01T08:08:18;36.65;;;18.75;;
82230;SDS011;71832;45.138;9.816;2023-08-01T08:10:45;40.75;;;20.00;;
82230;SDS011;71832;45.138;9.816;2023-08-01T08:13:12;34.10;;;16.80;;
82230;SDS011;71832;45.138;9.816;2023-08-01T08:15:40;30.52;;;16.20;;
82230;SDS011;71832;45.138;9.816;2023-08-01T08:18:07;35.50;;;19.13;;
82230;SDS011;71832;45.138;9.816;2023-08-01T08:20:40;36.95;;;17.23;;
82230;SDS011;71832;45.138;9.816;2023-08-01T08:23:11;35.55;;;18.30;;
82230;SDS011;71832;45.138;9.816;2023-08-01T08:25:41;35.17;;;16.73;;
82230;SDS011;71832;45.138;9.816;2023-08-01T08:28:12;32.10;;;16.52;;
82230;SDS011;71832;45.138;9.816;2023-08-01T08:30:40;34.33;;;16.48;;
82230;SDS011;71832;45.138;9.816;2023-08-01T08:33:07;39.10;;;18.58;;
82230;SDS011;71832;45.138;9.816;2023-08-01T08:35:36;33.30;;;17.77;;
82230;SDS011;71832;45.138;9.816;2023-08-01T08:38:04;38.60;;;20.73;;
82230;SDS011;71832;45.138;9.816;2023-08-01T08:40:33;43.88;;;19.77;;
82230;SDS011;71832;45.138;9.816;2023-08-01T08:43:02;56.95;;;21.83;;
82230;SDS011;71832;45.138;9.816;2023-08-01T08:45:32;34.30;;;17.25;;
82230;SDS011;71832;45.138;9.816;2023-08-01T08:48:03;44.63;;;21.40;;
82230;SDS011;71832;45.138;9.816;2023-08-01T08:50:37;40.35;;;19.48;;
82230;SDS011;71832;45.138;9.816;2023-08-01T08:53:06;37.53;;;20.13;;
82230;SDS011;71832;45.138;9.816;2023-08-01T08:55:39;39.47;;;20.20;;
82230;SDS011;71832;45.138;9.816;2023-08-01T08:58:07;39.78;;;17.77;;
82230;SDS011;71832;45.138;9.816;2023-08-01T09:00:35;37.97;;;19.13;;
82230;SDS011;71832;45.138;9.816;2023-08-01T09:03:04;36.88;;;18.88;;
82230;SDS011;71832;45.138;9.816;2023-08-01T09:06:15;40.33;;;20.90;;
82230;SDS011;71832;45.138;9.816;2023-08-01T09:11:24;39.13;;;20.20;;
82230;SDS011;71832;45.138;9.816;2023-08-01T09:19:34;39.83;;;20.00;;
82230;SDS011;71832;45.138;9.816;2023-08-01T09:22:09;40.72;;;17.88;;
82230;SDS011;71832;45.138;9.816;2023-08-01T09:24:38;39.75;;;17.65;;
82230;SDS011;71832;45.138;9.816;2023-08-01T09:27:20;34.80;;;15.27;;
82230;SDS011;71832;45.138;9.816;2023-08-01T09:29:49;34.08;;;15.15;;
82230;SDS011;71832;45.138;9.816;2023-08-01T09:32:17;36.90;;;16.63;;
82230;SDS011;71832;45.138;9.816;2023-08-01T09:34:45;36.53;;;15.10;;
82230;SDS011;71832;45.138;9.816;2023-08-01T09:37:13;31.27;;;14.27;;
82230;SDS011;71832;45.138;9.816;2023-08-01T09:39:43;34.70;;;14.63;;
82230;SDS011;71832;45.138;9.816;2023-08-01T09:42:12;26.80;;;12.27;;
82230;SDS011;71832;45.138;9.816;2023-08-01T09:44:44;25.50;;;12.98;;
82230;SDS011;71832;45.138;9.816;2023-08-01T09:47:12;25.92;;;10.93;;
82230;SDS011;71832;45.138;9.816;2023-08-01T09:49:48;23.50;;;10.77;;
82230;SDS011;71832;45.138;9.816;2023-08-01T09:52:26;27.65;;;13.48;;
82230;SDS011;71832;45.138;9.816;2023-08-01T09:54:54;32.28;;;14.90;;
82230;SDS011;71832;45.138;9.816;2023-08-01T09:57:22;31.70;;;16.35;;
82230;SDS011;71832;45.138;9.816;2023-08-01T09:59:55;23.52;;;11.20;;
82230;SDS011;71832;45.138;9.816;2023-08-01T10:02:24;28.92;;;13.50;;
82230;SDS011;71832;45.138;9.816;2023-08-01T10:04:53;22.10;;;11.35;;
82230;SDS011;71832;45.138;9.816;2023-08-01T10:07:24;25.95;;;10.68;;
82230;SDS011;71832;45.138;9.816;2023-08-01T10:09:55;26.33;;;13.05;;
82230;SDS011;71832;45.138;9.816;2023-08-01T10:12:25;33.05;;;14.77;;
82230;SDS011;71832;45.138;9.816;2023-08-01T10:14:53;24.80;;;12.90;;
82230;SDS011;71832;45.138;9.816;2023-08-01T10:17:22;29.23;;;15.65;;
82230;SDS011;71832;45.138;9.816;2023-08-01T10:19:51;28.70;;;13.95;;
82230;SDS011;71832;45.138;9.816;2023-08-01T10:22:23;29.40;;;14.00;;
82230;SDS011;71832;45.138;9.816;2023-08-01T10:24:52;24.50;;;14.35;;
82230;SDS011;71832;45.138;9.816;2023-08-01T10:27:20;28.00;;;14.20;;
82230;SDS011;71832;45.138;9.816;2023-08-01T10:32:36;28.90;;;14.50;;
82230;SDS011;71832;45.138;9.816;2023-08-01T10:35:05;29.08;;;15.77;;
82230;SDS011;71832;45.138;9.816;2023-08-01T10:37:43;27.67;;;15.02;;
82230;SDS011;71832;45.138;9.816;2023-08-01T10:40:13;26.83;;;14.27;;
82230;SDS011;71832;45.138;9.816;2023-08-01T10:42:42;23.63;;;12.23;;
82230;SDS011;71832;45.138;9.816;2023-08-01T10:45:31;27.17;;;11.55;;
82230;SDS011;71832;45.138;9.816;2023-08-01T10:48:18;26.88;;;13.82;;
82230;SDS011;71832;45.138;9.816;2023-08-01T10:50:53;24.52;;;11.95;;
82230;SDS011;71832;45.138;9.816;2023-08-01T10:53:23;26.30;;;11.23;;
82230;SDS011;71832;45.138;9.816;2023-08-01T10:55:52;22.42;;;12.43;;
82230;SDS011;71832;45.138;9.816;2023-08-01T10:58:26;22.88;;;12.68;;
82230;SDS011;71832;45.138;9.816;2023-08-01T11:01:04;26.38;;;12.27;;
82230;SDS011;71832;45.138;9.816;2023-08-01T11:03:33;25.27;;;12.77;;
82230;SDS011;71832;45.138;9.816;2023-08-01T11:06:03;22.33;;;10.57;;
82230;SDS011;71832;45.138;9.816;2023-08-01T11:08:41;24.42;;;12.05;;
82230;SDS011;71832;45.138;9.816;2023-08-01T11:11:11;21.33;;;10.75;;
82230;SDS011;71832;45.138;9.816;2023-08-01T11:13:41;30.00;;;11.18;;
82230;SDS011;71832;45.138;9.816;2023-08-01T11:16:16;27.77;;;11.40;;
82230;SDS011;71832;45.138;9.816;2023-08-01T11:18:45;27.35;;;13.48;;
82230;SDS011;71832;45.138;9.816;2023-08-01T11:21:23;26.92;;;11.40;;
82230;SDS011;71832;45.138;9.816;2023-08-01T11:23:54;26.13;;;11.55;;
82230;SDS011;71832;45.138;9.816;2023-08-01T11:26:23;20.70;;;11.07;;
82230;SDS011;71832;45.138;9.816;2023-08-01T11:28:52;21.77;;;11.20;;
82230;SDS011;71832;45.138;9.816;2023-08-01T11:31:20;25.73;;;11.45;;
82230;SDS011;71832;45.138;9.816;2023-08-01T11:33:59;20.38;;;10.75;;
82230;SDS011;71832;45.138;9.816;2023-08-01T11:36:28;23.40;;;13.10;;
82230;SDS011;71832;45.138;9.816;2023-08-01T11:38:58;22.95;;;11.30;;
82230;SDS011;71832;45.138;9.816;2023-08-01T11:41:28;25.55;;;11.88;;
82230;SDS011;71832;45.138;9.816;2023-08-01T11:43:55;25.13;;;13.32;;
82230;SDS011;71832;45.138;9.816;2023-08-01T11:46:31;28.92;;;12.65;;
82230;SDS011;71832;45.138;9.816;2023-08-01T11:48:59;20.65;;;11.38;;
82230;SDS011;71832;45.138;9.816;2023-08-01T11:51:27;21.88;;;11.27;;
82230;SDS011;71832;45.138;9.816;2023-08-01T11:54:00;21.55;;;10.90;;
82230;SDS011;71832;45.138;9.816;2023-08-01T11:56:29;28.27;;;12.73;;
82230;SDS011;71832;45.138;9.816;2023-08-01T11:58:57;17.02;;;10.75;;
82230;SDS011;71832;45.138;9.816;2023-08-01T12:01:25;18.25;;;10.73;;
82230;SDS011;71832;45.138;9.816;2023-08-01T12:03:54;21.83;;;10.68;;
82230;SDS011;71832;45.138;9.816;2023-08-01T12:06:24;23.52;;;10.93;;
82230;SDS011;71832;45.138;9.816;2023-08-01T12:08:52;27.38;;;11.77;;
82230;SDS011;71832;45.138;9.816;2023-08-01T12:11:22;23.55;;;11.30;;
82230;SDS011;71832;45.138;9.816;2023-08-01T12:14:13;33.42;;;12.25;;
82230;SDS011;71832;45.138;9.816;2023-08-01T12:16:41;25.13;;;11.45;;
82230;SDS011;71832;45.138;9.816;2023-08-01T12:19:16;28.70;;;13.38;;
82230;SDS011;71832;45.138;9.816;2023-08-01T12:21:46;25.52;;;14.27;;
82230;SDS011;71832;45.138;9.816;2023-08-01T12:24:15;31.35;;;15.05;;
82230;SDS011;71832;45.138;9.816;2023-08-01T12:26:44;24.58;;;11.93;;
82230;SDS011;71832;45.138;9.816;2023-08-01T12:29:12;25.35;;;12.40;;
82230;SDS011;71832;45.138;9.816;2023-08-01T12:31:40;23.10;;;11.93;;
82230;SDS011;71832;45.138;9.816;2023-08-01T12:34:09;26.67;;;12.18;;
82230;SDS011;71832;45.138;9.816;2023-08-01T12:36:37;26.42;;;12.10;;
82230;SDS011;71832;45.138;9.816;2023-08-01T12:39:05;25.92;;;12.02;;
82230;SDS011;71832;45.138;9.816;2023-08-01T12:41:37;30.58;;;13.35;;
82230;SDS011;71832;45.138;9.816;2023-08-01T12:44:05;23.23;;;11.57;;
82230;SDS011;71832;45.138;9.816;2023-08-01T12:46:34;26.13;;;12.38;;
82230;SDS011;71832;45.138;9.816;2023-08-01T12:49:02;23.92;;;11.50;;
82230;SDS011;71832;45.138;9.816;2023-08-01T12:51:31;29.45;;;12.98;;
82230;SDS011;71832;45.138;9.816;2023-08-01T12:54:00;22.70;;;11.48;;
82230;SDS011;71832;45.138;9.816;2023-08-01T12:56:29;23.00;;;11.70;;
82230;SDS011;71832;45.138;9.816;2023-08-01T12:58:57;23.77;;;12.82;;
82230;SDS011;71832;45.138;9.816;2023-08-01T13:01:26;25.13;;;12.40;;
82230;SDS011;71832;45.138;9.816;2023-08-01T13:03:55;28.25;;;11.18;;
82230;SDS011;71832;45.138;9.816;2023-08-01T13:06:23;29.33;;;13.02;;
82230;SDS011;71832;45.138;9.816;2023-08-01T13:08:51;21.98;;;11.68;;
82230;SDS011;71832;45.138;9.816;2023-08-01T13:11:20;29.33;;;14.68;;
82230;SDS011;71832;45.138;9.816;2023-08-01T13:13:49;27.42;;;12.40;;
82230;SDS011;71832;45.138;9.816;2023-08-01T13:16:18;24.63;;;11.65;;
82230;SDS011;71832;45.138;9.816;2023-08-01T13:18:46;23.10;;;10.68;;
82230;SDS011;71832;45.138;9.816;2023-08-01T13:21:15;23.25;;;11.75;;
82230;SDS011;71832;45.138;9.816;2023-08-01T13:23:42;23.00;;;11.68;;
82230;SDS011;71832;45.138;9.816;2023-08-01T13:26:10;26.85;;;12.38;;
82230;SDS011;71832;45.138;9.816;2023-08-01T13:28:37;32.13;;;12.50;;
82230;SDS011;71832;45.138;9.816;2023-08-01T13:31:05;31.15;;;12.88;;
82230;SDS011;71832;45.138;9.816;2023-08-01T13:33:33;25.73;;;12.27;;
82230;SDS011;71832;45.138;9.816;2023-08-01T13:36:02;24.58;;;11.60;;
82230;SDS011;71832;45.138;9.816;2023-08-01T13:38:30;26.60;;;11.93;;
82230;SDS011;71832;45.138;9.816;2023-08-01T13:40:59;21.48;;;11.80;;
82230;SDS011;71832;45.138;9.816;2023-08-01T13:43:26;21.95;;;11.43;;
82230;SDS011;71832;45.138;9.816;2023-08-01T13:45:54;28.85;;;11.77;;
82230;SDS011;71832;45.138;9.816;2023-08-01T13:48:22;22.60;;;11.75;;
82230;SDS011;71832;45.138;9.816;2023-08-01T13:50:50;28.63;;;13.73;;
82230;SDS011;71832;45.138;9.816;2023-08-01T13:53:19;25.92;;;13.23;;
82230;SDS011;71832;45.138;9.816;2023-08-01T13:55:48;24.70;;;12.10;;
82230;SDS011;71832;45.138;9.816;2023-08-01T13:58:17;24.08;;;12.25;;
82230;SDS011;71832;45.138;9.816;2023-08-01T14:00:45;20.77;;;10.65;;
82230;SDS011;71832;45.138;9.816;2023-08-01T14:03:14;26.23;;;12.43;;
82230;SDS011;71832;45.138;9.816;2023-08-01T14:05:43;23.30;;;11.93;;
82230;SDS011;71832;45.138;9.816;2023-08-01T14:08:12;26.67;;;11.27;;
82230;SDS011;71832;45.138;9.816;2023-08-01T14:10:42;25.75;;;11.63;;
82230;SDS011;71832;45.138;9.816;2023-08-01T14:13:10;25.63;;;12.50;;
82230;SDS011;71832;45.138;9.816;2023-08-01T14:15:39;22.75;;;11.23;;
82230;SDS011;71832;45.138;9.816;2023-08-01T14:18:08;27.08;;;11.85;;
82230;SDS011;71832;45.138;9.816;2023-08-01T14:20:37;29.55;;;15.77;;
82230;SDS011;71832;45.138;9.816;2023-08-01T14:23:05;28.25;;;11.82;;
82230;SDS011;71832;45.138;9.816;2023-08-01T14:25:34;22.42;;;11.70;;
82230;SDS011;71832;45.138;9.816;2023-08-01T14:28:03;23.02;;;11.70;;
82230;SDS011;71832;45.138;9.816;2023-08-01T14:30:32;21.92;;;11.10;;
82230;SDS011;71832;45.138;9.816;2023-08-01T14:33:01;31.08;;;12.35;;
82230;SDS011;71832;45.138;9.816;2023-08-01T14:35:31;22.00;;;10.70;;
82230;SDS011;71832;45.138;9.816;2023-08-01T14:37:59;28.92;;;13.15;;
82230;SDS011;71832;45.138;9.816;2023-08-01T14:40:28;27.42;;;12.00;;
82230;SDS011;71832;45.138;9.816;2023-08-01T14:42:56;28.35;;;12.02;;